createdAt,value
2023-04-04T00:01:09.174Z,16.84
2023-04-04T00:03:37.825Z,16.84
2023-04-04T00:06:07.839Z,16.83
2023-04-04T00:08:36.079Z,16.84
2023-04-04T00:11:06.567Z,16.80
2023-04-04T00:13:35.306Z,16.81
2023-04-04T00:16:04.268Z,16.82
2023-04-04T00:18:32.874Z,16.81
2023-04-04T00:21:01.721Z,16.83
2023-04-04T00:23:30.148Z,16.81
2023-04-04T00:25:58.914Z,16.80
2023-04-04T00:28:27.370Z,16.80
2023-04-04T00:30:56.380Z,16.78
2023-04-04T00:33:25.002Z,16.78
2023-04-04T00:35:55.010Z,16.80
2023-04-04T00:38:23.560Z,16.80
2023-04-04T00:40:52.481Z,16.78
2023-04-04T00:43:21.361Z,16.79
2023-04-04T00:45:52.477Z,16.77
2023-04-04T00:48:21.629Z,16.76
2023-04-04T00:50:50.670Z,16.76
2023-04-04T00:53:19.207Z,16.75
2023-04-04T00:55:48.058Z,16.75
2023-04-04T00:58:16.436Z,16.75
2023-04-04T01:00:45.178Z,16.76
2023-04-04T01:03:14.643Z,16.72
2023-04-04T01:05:43.386Z,16.73
2023-04-04T01:08:12.257Z,16.74
2023-04-04T01:10:41.187Z,16.73
2023-04-04T01:13:09.981Z,16.73
2023-04-04T01:15:38.783Z,16.72
2023-04-04T01:18:07.866Z,16.73
2023-04-04T01:20:42.754Z,16.71
2023-04-04T01:23:11.542Z,16.72
2023-04-04T01:25:40.731Z,16.69
2023-04-04T01:28:14.835Z,16.68
2023-04-04T01:30:44.856Z,16.70
2023-04-04T01:33:23.982Z,16.68
2023-04-04T01:36:04.986Z,16.69
2023-04-04T01:38:44.870Z,16.71
2023-04-04T01:41:14.945Z,16.69
2023-04-04T01:43:50.023Z,16.69
2023-04-04T01:46:19.007Z,16.68
2023-04-04T01:48:50.031Z,16.69
2023-04-04T01:51:24.133Z,16.69
2023-04-04T01:53:54.197Z,16.68
2023-04-04T01:56:23.205Z,16.66
2023-04-04T01:58:52.636Z,16.66
2023-04-04T02:01:21.520Z,16.65
2023-04-04T02:03:49.996Z,16.65
2023-04-04T02:06:18.887Z,16.64
2023-04-04T02:08:47.394Z,16.64
2023-04-04T02:11:16.519Z,16.65
2023-04-04T02:13:44.929Z,16.64
2023-04-04T02:16:17.420Z,16.63
2023-04-04T02:18:46.162Z,16.64
2023-04-04T02:21:14.963Z,16.63
2023-04-04T02:23:43.318Z,16.62
2023-04-04T02:26:12.114Z,16.62
2023-04-04T02:28:40.472Z,16.62
2023-04-04T02:31:09.216Z,16.61
2023-04-04T02:33:37.990Z,16.59
2023-04-04T02:36:09.139Z,16.62
2023-04-04T02:38:38.515Z,16.59
2023-04-04T02:41:07.962Z,16.59
2023-04-04T02:43:37.841Z,16.59
2023-04-04T02:46:20.649Z,16.59
2023-04-04T02:48:52.440Z,16.58
2023-04-04T02:51:21.863Z,16.59
2023-04-04T02:53:50.241Z,16.57
2023-04-04T02:56:24.611Z,16.57
2023-04-04T02:58:53.382Z,16.58
2023-04-04T03:01:22.287Z,16.54
2023-04-04T03:03:50.892Z,16.57
2023-04-04T03:06:20.098Z,16.53
2023-04-04T03:08:50.750Z,16.53
2023-04-04T03:11:21.729Z,16.54
2023-04-04T03:13:53.649Z,16.55
2023-04-04T03:16:27.618Z,16.54
2023-04-04T03:18:56.718Z,16.53
2023-04-04T03:21:26.116Z,16.54
2023-04-04T03:23:58.090Z,16.53
2023-04-04T03:26:29.565Z,16.51
2023-04-04T03:28:58.214Z,16.51
2023-04-04T03:31:28.298Z,16.50
2023-04-04T03:33:56.724Z,16.51
2023-04-04T03:36:26.132Z,16.50
2023-04-04T03:38:54.456Z,16.48
2023-04-04T03:41:23.116Z,16.49
2023-04-04T03:43:51.569Z,16.48
2023-04-04T03:46:20.549Z,16.48
2023-04-04T03:48:50.002Z,16.44
2023-04-04T03:51:25.799Z,16.47
2023-04-04T03:53:54.395Z,16.46
2023-04-04T03:56:23.141Z,16.45
2023-04-04T03:58:51.785Z,16.46
2023-04-04T04:01:23.536Z,16.45
2023-04-04T04:03:52.018Z,16.44
2023-04-04T04:06:20.894Z,16.43
2023-04-04T04:08:49.952Z,16.44
2023-04-04T04:11:20.165Z,16.44
2023-04-04T04:13:48.796Z,16.42
2023-04-04T04:16:18.156Z,16.42
2023-04-04T04:18:47.244Z,16.42
2023-04-04T04:21:23.225Z,16.40
2023-04-04T04:23:52.077Z,16.42
2023-04-04T04:26:21.744Z,16.41
2023-04-04T04:28:50.406Z,16.38
2023-04-04T04:31:27.425Z,16.38
2023-04-04T04:33:58.209Z,16.38
2023-04-04T04:36:31.340Z,16.38
2023-04-04T04:39:15.461Z,16.36
2023-04-04T04:41:56.912Z,16.38
2023-04-04T04:44:26.580Z,16.34
2023-04-04T04:46:58.358Z,16.36
2023-04-04T04:49:27.684Z,16.36
2023-04-04T04:51:57.360Z,16.34
2023-04-04T04:54:26.600Z,16.33
2023-04-04T04:56:57.269Z,16.34
2023-04-04T04:59:27.571Z,16.36
2023-04-04T05:01:56.985Z,16.38
2023-04-04T05:04:27.675Z,16.35
2023-04-04T05:07:08.678Z,16.35
2023-04-04T05:09:37.437Z,16.34
2023-04-04T05:12:08.085Z,16.34
2023-04-04T05:14:44.097Z,16.33
2023-04-04T05:17:13.374Z,16.31
2023-04-04T05:19:42.522Z,16.33
2023-04-04T05:22:17.093Z,16.30
2023-04-04T05:24:49.872Z,16.34
2023-04-04T05:27:23.406Z,16.34
2023-04-04T05:29:58.417Z,16.33
2023-04-04T05:32:35.830Z,16.34
2023-04-04T05:35:11.215Z,16.34
2023-04-04T05:37:41.287Z,16.33
2023-04-04T05:40:14.237Z,16.32
2023-04-04T05:42:56.379Z,16.32
2023-04-04T05:45:28.354Z,16.31
2023-04-04T05:47:58.712Z,16.34
2023-04-04T05:50:31.814Z,16.32
2023-04-04T05:53:05.050Z,16.31
2023-04-04T05:55:34.043Z,16.31
2023-04-04T05:58:03.696Z,16.31
2023-04-04T06:00:44.500Z,16.31
2023-04-04T06:03:14.621Z,16.31
2023-04-04T06:05:44.935Z,16.32
2023-04-04T06:08:14.590Z,16.33
2023-04-04T06:10:43.232Z,16.31
2023-04-04T06:13:12.249Z,16.31
2023-04-04T06:15:43.295Z,16.32
2023-04-04T06:18:12.764Z,16.31
2023-04-04T06:20:41.932Z,16.31
2023-04-04T06:23:11.531Z,16.32
2023-04-04T06:25:44.538Z,16.31
2023-04-04T06:28:16.218Z,16.31
2023-04-04T06:30:47.310Z,16.33
2023-04-04T06:33:18.842Z,16.28
2023-04-04T06:35:50.093Z,16.25
2023-04-04T06:38:19.799Z,16.28
2023-04-04T06:40:48.639Z,16.29
2023-04-04T06:43:17.696Z,16.30
2023-04-04T06:45:48.171Z,16.27
2023-04-04T06:48:17.316Z,16.26
2023-04-04T06:50:46.493Z,16.28
2023-04-04T06:53:18.096Z,16.27
2023-04-04T06:55:46.735Z,16.27
2023-04-04T06:58:15.668Z,16.27
2023-04-04T07:00:44.358Z,16.26
2023-04-04T07:03:13.424Z,16.31
2023-04-04T07:05:42.390Z,16.30
2023-04-04T07:08:11.860Z,16.29
2023-04-04T07:10:41.395Z,16.31
2023-04-04T07:13:11.500Z,16.30
2023-04-04T07:15:40.183Z,16.37
2023-04-04T07:18:09.335Z,16.39
2023-04-04T07:20:38.219Z,16.38
2023-04-04T07:23:07.706Z,16.34
2023-04-04T07:25:36.427Z,16.39
2023-04-04T07:28:12.330Z,16.43
2023-04-04T07:30:42.240Z,16.46
2023-04-04T07:33:12.023Z,16.47
2023-04-04T07:35:40.921Z,16.50
2023-04-04T07:38:10.562Z,16.50
2023-04-04T07:40:39.352Z,16.51
2023-04-04T07:43:08.629Z,16.53
2023-04-04T07:45:37.393Z,16.54
2023-04-04T07:48:07.068Z,16.51
2023-04-04T07:50:35.763Z,16.57
2023-04-04T07:53:04.745Z,16.55
2023-04-04T07:55:33.335Z,16.59
2023-04-04T07:58:02.777Z,16.59
2023-04-04T08:00:31.728Z,16.59
2023-04-04T08:03:01.917Z,16.62
2023-04-04T08:05:30.669Z,16.62
2023-04-04T08:07:59.792Z,16.63
2023-04-04T08:10:28.378Z,16.65
2023-04-04T08:12:57.431Z,16.67
2023-04-04T08:15:25.949Z,16.67
2023-04-04T08:17:56.255Z,16.64
2023-04-04T08:20:24.829Z,16.65
2023-04-04T08:22:53.871Z,16.67
2023-04-04T08:25:22.408Z,16.73
2023-04-04T08:27:51.260Z,16.71
2023-04-04T08:30:20.009Z,16.77
2023-04-04T08:32:48.968Z,16.76
2023-04-04T08:35:17.709Z,16.78
2023-04-04T08:37:46.930Z,16.78
2023-04-04T08:40:15.975Z,16.74
2023-04-04T08:42:46.391Z,16.74
2023-04-04T08:45:18.731Z,16.76
2023-04-04T08:47:51.153Z,16.73
2023-04-04T08:50:19.549Z,16.75
2023-04-04T08:52:48.294Z,16.74
2023-04-04T08:55:16.794Z,16.80
2023-04-04T08:57:45.549Z,16.80
2023-04-04T09:00:17.041Z,16.74
2023-04-04T09:03:27.752Z,16.76
2023-04-04T09:05:56.655Z,16.80
2023-04-04T09:08:25.684Z,16.80
2023-04-04T09:10:54.076Z,16.82
2023-04-04T09:13:23.069Z,16.84
2023-04-04T09:15:54.356Z,16.87
2023-04-04T09:18:23.278Z,16.77
2023-04-04T09:20:51.767Z,16.83
2023-04-04T09:23:21.205Z,16.82
2023-04-04T09:28:24.445Z,16.76
2023-04-04T09:30:53.256Z,16.73
2023-04-04T09:33:24.171Z,16.78
2023-04-04T09:35:59.022Z,16.76
2023-04-04T09:38:29.242Z,16.83
2023-04-04T09:40:57.955Z,16.83
2023-04-04T09:43:26.893Z,16.78
2023-04-04T09:45:55.486Z,16.80
2023-04-04T09:48:29.056Z,16.82
2023-04-04T09:51:01.011Z,16.80
2023-04-04T09:53:29.990Z,16.76
2023-04-04T09:55:58.528Z,16.75
2023-04-04T09:58:29.000Z,16.74
2023-04-04T10:01:02.189Z,16.84
2023-04-04T10:03:31.329Z,16.85
2023-04-04T10:06:07.761Z,16.84
2023-04-04T10:08:42.068Z,16.78
2023-04-04T10:11:12.246Z,16.78
2023-04-04T10:13:42.390Z,16.70
2023-04-04T10:16:12.302Z,16.81
2023-04-04T10:18:41.708Z,16.86
2023-04-04T10:23:42.699Z,16.72
2023-04-04T10:26:11.986Z,16.76
2023-04-04T10:28:42.685Z,16.77
2023-04-04T10:31:25.653Z,16.78
2023-04-04T10:34:12.968Z,16.75
2023-04-04T10:37:07.424Z,16.67
2023-04-04T10:39:47.284Z,16.68
2023-04-04T10:42:19.020Z,16.71
2023-04-04T10:44:47.849Z,16.64
2023-04-04T10:47:22.071Z,16.51
2023-04-04T10:49:51.924Z,15.62
2023-04-04T10:52:23.015Z,15.62
2023-04-04T10:54:57.774Z,15.48
2023-04-04T10:57:26.275Z,15.53
2023-04-04T11:00:13.232Z,15.72
2023-04-04T11:02:58.593Z,15.94
2023-04-04T11:05:42.665Z,16.03
2023-04-04T11:08:14.516Z,15.73
2023-04-04T11:10:45.472Z,15.80
2023-04-04T11:13:35.703Z,15.84
2023-04-04T11:16:11.523Z,15.83
2023-04-04T11:18:43.851Z,15.91
2023-04-04T11:21:18.818Z,15.74
2023-04-04T11:23:50.305Z,15.31
2023-04-04T11:26:20.366Z,15.20
2023-04-04T11:28:48.873Z,15.34
2023-04-04T11:31:23.680Z,15.12
2023-04-04T11:34:05.165Z,15.28
2023-04-04T11:36:40.689Z,15.04
2023-04-04T11:39:31.323Z,15.03
2023-04-04T11:42:14.184Z,15.37
2023-04-04T11:45:07.468Z,15.61
2023-04-04T11:47:36.493Z,15.61
2023-04-04T11:50:09.733Z,15.31
2023-04-04T11:52:38.782Z,14.97
2023-04-04T11:55:20.214Z,15.05
2023-04-04T11:57:51.621Z,15.09
2023-04-04T12:00:33.480Z,15.13
2023-04-04T12:03:02.397Z,15.14
2023-04-04T12:05:31.639Z,15.23
2023-04-04T12:08:02.645Z,15.42
2023-04-04T12:10:34.938Z,15.24
2023-04-04T12:13:07.539Z,15.23
2023-04-04T12:15:37.137Z,15.33
2023-04-04T12:18:09.478Z,15.40
2023-04-04T12:20:41.728Z,15.34
2023-04-04T12:23:10.687Z,15.17
2023-04-04T12:25:40.676Z,15.28
2023-04-04T12:28:09.751Z,15.28
2023-04-04T12:30:39.358Z,15.17
2023-04-04T12:33:08.160Z,15.29
2023-04-04T12:35:36.711Z,15.30
2023-04-04T12:38:11.268Z,15.47
2023-04-04T12:40:39.830Z,15.62
2023-04-04T12:43:09.225Z,15.70
2023-04-04T12:45:41.675Z,15.80
2023-04-04T12:48:15.146Z,15.85
2023-04-04T12:50:54.354Z,15.89
2023-04-04T12:55:57.261Z,15.96
2023-04-04T12:58:26.212Z,15.99
2023-04-04T13:00:55.666Z,15.97
2023-04-04T13:03:25.150Z,15.91
2023-04-04T13:05:53.972Z,15.87
2023-04-04T13:08:23.145Z,15.83
2023-04-04T13:11:03.910Z,15.75
2023-04-04T13:13:34.558Z,15.70
2023-04-04T13:16:14.910Z,15.57
2023-04-04T13:18:44.417Z,15.65
2023-04-04T13:21:13.590Z,15.67
2023-04-04T13:23:42.433Z,15.63
2023-04-04T13:26:11.497Z,15.60
2023-04-04T13:28:40.594Z,15.60
2023-04-04T13:31:10.249Z,15.54
2023-04-04T13:33:39.135Z,15.71
2023-04-04T13:36:07.810Z,15.79
2023-04-04T13:38:36.491Z,15.80
2023-04-04T13:41:04.859Z,15.57
2023-04-04T13:43:33.548Z,15.51
2023-04-04T13:46:01.932Z,15.68
2023-04-04T13:48:31.383Z,15.77
2023-04-04T13:50:59.836Z,15.85
2023-04-04T13:53:28.756Z,15.90
2023-04-04T13:56:17.222Z,15.94
2023-04-04T13:58:46.566Z,15.86
2023-04-04T14:01:14.899Z,15.67
2023-04-04T14:03:43.764Z,15.57
2023-04-04T14:06:12.671Z,15.61
2023-04-04T14:08:41.340Z,15.48
2023-04-04T14:11:09.716Z,15.43
2023-04-04T14:13:38.326Z,15.54
2023-04-04T14:16:08.784Z,15.50
2023-04-04T14:18:37.688Z,15.63
2023-04-04T14:21:06.521Z,15.74
2023-04-04T14:23:35.399Z,15.80
2023-04-04T14:26:04.664Z,15.72
2023-04-04T14:28:33.901Z,15.66
2023-04-04T14:31:02.354Z,15.60
2023-04-04T14:33:31.448Z,15.61
2023-04-04T14:36:00.082Z,15.80
2023-04-04T14:38:30.541Z,15.88
2023-04-04T14:41:01.154Z,15.91
2023-04-04T14:43:29.939Z,15.94
2023-04-04T14:45:58.325Z,16.03
2023-04-04T14:48:27.251Z,15.87
2023-04-04T14:50:55.625Z,15.81
2023-04-04T14:53:24.319Z,15.77
2023-04-04T14:55:53.510Z,15.76
2023-04-04T14:58:22.330Z,15.74
2023-04-04T15:00:50.905Z,15.80
2023-04-04T15:03:19.680Z,15.85
2023-04-04T15:05:49.314Z,15.88
2023-04-04T15:08:18.105Z,15.92
2023-04-04T15:10:46.557Z,15.99
2023-04-04T15:13:15.241Z,15.97
2023-04-04T15:15:43.756Z,15.97
2023-04-04T15:18:12.635Z,15.93
2023-04-04T15:20:41.083Z,15.99
2023-04-04T15:23:09.901Z,15.96
2023-04-04T15:25:38.415Z,15.78
2023-04-04T15:28:07.207Z,15.80
2023-04-04T15:30:35.610Z,15.61
2023-04-04T15:33:04.561Z,15.64
2023-04-04T15:35:33.291Z,15.57
2023-04-04T15:38:02.111Z,15.64
2023-04-04T15:40:30.593Z,15.68
2023-04-04T15:42:59.267Z,15.66
2023-04-04T15:45:27.830Z,15.73
2023-04-04T15:47:56.773Z,15.69
2023-04-04T15:50:25.350Z,15.72
2023-04-04T15:52:54.332Z,15.72
2023-04-04T15:55:22.892Z,15.53
2023-04-04T15:57:51.691Z,15.46
2023-04-04T16:00:20.440Z,15.44
2023-04-04T16:02:49.216Z,15.56
2023-04-04T16:05:17.986Z,15.68
2023-04-04T16:07:46.948Z,15.62
2023-04-04T16:10:15.661Z,15.58
2023-04-04T16:12:44.841Z,15.51
2023-04-04T16:15:13.707Z,15.42
2023-04-04T16:17:42.980Z,15.46
2023-04-04T16:20:12.242Z,15.49
2023-04-04T16:22:41.106Z,15.48
2023-04-04T16:25:09.957Z,15.40
2023-04-04T16:27:38.918Z,15.10
2023-04-04T16:30:08.508Z,15.33
2023-04-04T16:32:37.595Z,15.57
2023-04-04T16:35:06.834Z,15.73
2023-04-04T16:37:35.674Z,15.80
2023-04-04T16:40:05.367Z,15.88
2023-04-04T16:42:34.425Z,15.96
2023-04-04T16:45:03.105Z,16.02
2023-04-04T16:47:32.164Z,16.06
2023-04-04T16:50:00.697Z,16.16
2023-04-04T16:52:29.675Z,16.25
2023-04-04T16:54:58.157Z,16.29
2023-04-04T16:57:27.485Z,16.35
2023-04-04T16:59:55.990Z,16.36
2023-04-04T17:02:24.839Z,16.33
2023-04-04T17:04:53.749Z,16.30
2023-04-04T17:07:22.942Z,16.28
2023-04-04T17:09:52.178Z,16.29
2023-04-04T17:12:21.737Z,16.26
2023-04-04T17:14:50.155Z,16.26
2023-04-04T17:17:19.552Z,16.24
2023-04-04T17:19:48.023Z,16.22
2023-04-04T17:22:16.912Z,16.21
2023-04-04T17:24:45.700Z,16.20
2023-04-04T17:27:14.531Z,16.20
2023-04-04T17:29:43.168Z,16.19
2023-04-04T17:32:12.196Z,16.14
2023-04-04T17:34:41.094Z,16.17
2023-04-04T17:37:11.811Z,16.18
2023-04-04T17:39:40.372Z,16.16
2023-04-04T17:42:09.470Z,16.16
2023-04-04T17:44:38.302Z,16.12
2023-04-04T17:47:07.084Z,16.12
2023-04-04T17:49:35.716Z,16.11
2023-04-04T17:52:05.119Z,16.08
2023-04-04T17:54:34.118Z,16.09
2023-04-04T17:57:03.643Z,16.09
2023-04-04T17:59:32.384Z,16.08
2023-04-04T18:02:01.461Z,16.09
2023-04-04T18:04:30.047Z,16.08
2023-04-04T18:06:59.092Z,16.09
2023-04-04T18:09:29.123Z,16.07
2023-04-04T18:11:58.554Z,16.06
2023-04-04T18:14:27.377Z,16.05
2023-04-04T18:16:56.210Z,16.07
2023-04-04T18:19:24.934Z,16.06
2023-04-04T18:22:00.114Z,16.05
2023-04-04T18:24:29.368Z,16.05
2023-04-04T18:26:58.616Z,16.05
2023-04-04T18:29:27.381Z,16.05
2023-04-04T18:31:56.268Z,16.02
2023-04-04T18:34:24.964Z,16.05
2023-04-04T18:36:53.941Z,16.07
2023-04-04T18:39:22.388Z,16.07
2023-04-04T18:41:51.561Z,16.08
2023-04-04T18:44:21.454Z,16.07
2023-04-04T18:46:50.649Z,16.06
2023-04-04T18:49:19.401Z,16.06
2023-04-04T18:51:48.093Z,16.06
2023-04-04T18:54:16.519Z,16.06
2023-04-04T18:56:45.803Z,16.06
2023-04-04T18:59:15.040Z,16.06
2023-04-04T19:01:43.794Z,16.08
2023-04-04T19:04:12.257Z,16.10
2023-04-04T19:06:41.223Z,16.11
2023-04-04T19:09:09.957Z,16.13
2023-04-04T19:11:39.034Z,16.14
2023-04-04T19:14:09.252Z,16.14
2023-04-04T19:16:38.698Z,16.18
2023-04-04T19:19:07.521Z,16.18
2023-04-04T19:21:36.619Z,16.21
2023-04-04T19:24:06.749Z,16.20
2023-04-04T19:26:36.090Z,16.20
2023-04-04T19:29:05.703Z,16.21
2023-04-04T19:31:35.050Z,16.22
2023-04-04T19:34:03.925Z,16.20
2023-04-04T19:36:34.691Z,16.21
2023-04-04T19:39:04.014Z,16.22
2023-04-04T19:41:40.309Z,16.21
2023-04-04T19:44:23.184Z,16.26
2023-04-04T19:46:53.280Z,16.26
2023-04-04T19:49:24.538Z,16.25
2023-04-04T19:51:58.977Z,16.24
2023-04-04T19:54:40.931Z,16.26
2023-04-04T19:57:29.700Z,16.26
2023-04-04T20:00:17.976Z,16.24
2023-04-04T20:02:52.220Z,16.24
2023-04-04T20:05:32.524Z,16.24
2023-04-04T20:08:01.735Z,16.26
2023-04-04T20:10:38.405Z,16.22
2023-04-04T20:13:07.448Z,16.26
2023-04-04T20:15:48.328Z,16.28
2023-04-04T20:18:36.298Z,16.23
2023-04-04T20:21:10.665Z,16.21
2023-04-04T20:23:57.887Z,16.20
2023-04-04T20:26:59.673Z,16.20
2023-04-04T20:29:32.910Z,16.19
2023-04-04T20:32:08.846Z,16.21
2023-04-04T20:34:46.865Z,16.19
2023-04-04T20:37:22.409Z,16.16
2023-04-04T20:40:13.409Z,16.17
2023-04-04T20:42:42.205Z,16.16
2023-04-04T20:45:14.111Z,16.16
2023-04-04T20:47:53.062Z,16.15
2023-04-04T20:50:27.357Z,16.14
2023-04-04T20:53:03.785Z,16.14
2023-04-04T20:55:34.222Z,16.14
2023-04-04T20:58:28.370Z,16.13
2023-04-04T21:00:59.136Z,16.14
2023-04-04T21:03:34.545Z,16.13
2023-04-04T21:06:15.369Z,16.11
2023-04-04T21:08:45.895Z,16.13
2023-04-04T21:11:24.006Z,16.12
2023-04-04T21:13:52.465Z,16.12
2023-04-04T21:16:24.944Z,16.12
2023-04-04T21:18:59.485Z,16.10
2023-04-04T21:21:28.735Z,16.13
2023-04-04T21:24:01.201Z,16.10
2023-04-04T21:26:35.517Z,16.10
2023-04-04T21:29:18.744Z,16.10
2023-04-04T21:31:48.938Z,16.10
2023-04-04T21:34:22.745Z,16.09
2023-04-04T21:37:00.204Z,16.09
2023-04-04T21:39:29.946Z,16.09
2023-04-04T21:42:01.753Z,16.08
2023-04-04T21:44:31.402Z,16.09
2023-04-04T21:47:00.094Z,16.08
2023-04-04T21:49:28.801Z,16.06
2023-04-04T21:51:57.627Z,16.06
2023-04-04T21:54:26.113Z,16.06
2023-04-04T21:56:55.413Z,16.05
2023-04-04T21:59:24.053Z,16.05
2023-04-04T22:01:53.055Z,16.04
2023-04-04T22:04:21.670Z,16.05
2023-04-04T22:06:50.533Z,16.05
2023-04-04T22:09:22.852Z,16.05
2023-04-04T22:11:54.035Z,16.04
2023-04-04T22:14:22.570Z,16.04
2023-04-04T22:16:53.412Z,16.03
2023-04-04T22:19:23.822Z,16.04
2023-04-04T22:21:54.295Z,16.04
2023-04-04T22:24:23.119Z,16.04
2023-04-04T22:26:51.920Z,16.04
2023-04-04T22:29:20.432Z,16.04
2023-04-04T22:31:49.334Z,16.03
2023-04-04T22:34:17.829Z,16.02
2023-04-04T22:36:46.584Z,16.01
2023-04-04T22:39:16.433Z,16.03
2023-04-04T22:41:45.428Z,16.04
2023-04-04T22:44:14.247Z,16.02
2023-04-04T22:46:43.181Z,15.99
2023-04-04T22:49:13.646Z,16.01
2023-04-04T22:51:46.062Z,16.02
2023-04-04T22:54:17.471Z,15.99
2023-04-04T22:56:46.613Z,16.01
2023-04-04T22:59:15.551Z,15.99
2023-04-04T23:01:44.483Z,15.97
2023-04-04T23:04:13.569Z,15.97
2023-04-04T23:06:43.249Z,15.98
2023-04-04T23:09:11.697Z,15.97
2023-04-04T23:11:40.910Z,15.98
2023-04-04T23:14:09.855Z,15.97
2023-04-04T23:16:38.757Z,15.96
2023-04-04T23:19:07.725Z,15.96
2023-04-04T23:21:36.948Z,15.97
2023-04-04T23:24:07.174Z,15.95
2023-04-04T23:26:36.234Z,15.96
2023-04-04T23:29:05.970Z,15.96
2023-04-04T23:31:36.678Z,15.95
2023-04-04T23:34:05.205Z,15.94
2023-04-04T23:36:34.369Z,15.95
2023-04-04T23:39:04.287Z,15.93
2023-04-04T23:41:33.386Z,15.93
2023-04-04T23:44:02.357Z,15.94
2023-04-04T23:46:32.773Z,15.93
2023-04-04T23:49:02.281Z,15.92
2023-04-04T23:51:38.188Z,15.91
2023-04-04T23:54:08.189Z,15.92
2023-04-04T23:56:36.823Z,15.92
2023-04-04T23:59:06.336Z,15.90
